createdAt,value
2018-08-09T00:00:26.214Z,99.20
2018-08-09T00:03:08.133Z,99.50
2018-08-09T00:05:53.095Z,99.20
2018-08-09T00:08:31.612Z,99.30
2018-08-09T00:11:01.374Z,99.30
2018-08-09T00:13:37.514Z,99.40
2018-08-09T00:16:07.607Z,99.50
2018-08-09T00:18:42.533Z,99.50
2018-08-09T00:21:11.729Z,99.50
2018-08-09T00:23:46.780Z,99.40
2018-08-09T00:26:16.223Z,99.40
2018-08-09T00:28:46.442Z,99.50
2018-08-09T00:31:16.103Z,99.40
2018-08-09T00:33:50.097Z,99.40
2018-08-09T00:36:25.182Z,99.40
2018-08-09T00:38:57.570Z,99.40
2018-08-09T00:41:32.257Z,99.40
2018-08-09T00:44:01.351Z,99.40
2018-08-09T00:46:30.738Z,99.40
2018-08-09T00:49:05.653Z,99.40
2018-08-09T00:51:34.933Z,99.40
2018-08-09T00:54:16.286Z,99.30
2018-08-09T00:56:54.274Z,99.40
2018-08-09T00:59:25.545Z,99.30
2018-08-09T01:01:54.453Z,99.30
2018-08-09T01:04:29.909Z,99.30
2018-08-09T01:07:02.678Z,99.30
2018-08-09T01:09:31.872Z,99.30
2018-08-09T01:12:00.979Z,99.30
2018-08-09T01:14:38.960Z,99.30
2018-08-09T01:17:08.929Z,99.30
2018-08-09T01:19:38.145Z,99.40
2018-08-09T01:22:08.613Z,99.40
2018-08-09T01:24:42.852Z,99.40
2018-08-09T01:27:11.967Z,99.30
2018-08-09T01:29:43.901Z,99.40
2018-08-09T01:32:18.113Z,99.40
2018-08-09T01:34:48.226Z,99.40
2018-08-09T01:37:19.921Z,99.40
2018-08-09T01:39:48.568Z,99.40
2018-08-09T01:42:32.227Z,99.50
2018-08-09T01:45:06.298Z,99.60
2018-08-09T01:47:53.770Z,99.60
2018-08-09T01:50:25.226Z,99.60
2018-08-09T01:52:59.341Z,99.60
2018-08-09T01:55:28.480Z,99.70
2018-08-09T01:58:02.550Z,99.70
2018-08-09T02:00:31.598Z,99.80
2018-08-09T02:03:05.740Z,99.90
2018-08-09T02:05:40.224Z,99.90
2018-08-09T02:08:14.673Z,99.90
2018-08-09T02:10:43.761Z,99.90
2018-08-09T02:13:12.622Z,99.90
2018-08-09T02:15:44.344Z,99.90
2018-08-09T02:18:18.468Z,99.90
2018-08-09T02:20:48.607Z,99.90
2018-08-09T02:23:20.409Z,99.90
2018-08-09T02:25:52.078Z,99.90
2018-08-09T02:28:20.990Z,99.90
2018-08-09T02:30:50.404Z,99.90
2018-08-09T02:33:24.504Z,99.90
2018-08-09T02:36:03.055Z,99.90
2018-08-09T02:38:33.406Z,99.90
2018-08-09T02:41:05.118Z,99.90
2018-08-09T02:43:33.832Z,99.90
2018-08-09T02:46:02.478Z,99.90
2018-08-09T02:48:32.214Z,99.90
2018-08-09T02:51:00.968Z,99.90
2018-08-09T02:53:42.561Z,99.90
2018-08-09T02:56:11.305Z,99.90
2018-08-09T02:58:39.917Z,99.90
2018-08-09T03:01:08.662Z,99.90
2018-08-09T03:03:40.379Z,99.90
2018-08-09T03:06:09.920Z,99.90
2018-08-09T03:08:44.050Z,99.90
2018-08-09T03:11:13.036Z,99.90
2018-08-09T03:13:42.813Z,99.90
2018-08-09T03:16:14.521Z,99.90
2018-08-09T03:18:48.616Z,99.90
2018-08-09T03:21:19.944Z,99.90
2018-08-09T03:23:48.763Z,99.90
2018-08-09T03:26:18.496Z,99.90
2018-08-09T03:28:48.259Z,99.90
2018-08-09T03:31:17.065Z,99.90
2018-08-09T03:33:45.710Z,99.90
2018-08-09T03:36:14.334Z,99.90
2018-08-09T03:38:46.048Z,99.90
2018-08-09T03:41:17.758Z,99.90
2018-08-09T03:43:46.620Z,99.90
2018-08-09T03:46:25.088Z,99.90
2018-08-09T03:48:56.337Z,99.90
2018-08-09T03:51:40.547Z,99.90
2018-08-09T03:54:21.577Z,99.90
2018-08-09T03:57:06.242Z,99.90
2018-08-09T03:59:35.067Z,99.90
2018-08-09T04:02:04.304Z,99.90
2018-08-09T04:04:36.174Z,99.90
2018-08-09T04:07:12.408Z,99.90
2018-08-09T04:09:41.455Z,99.90
2018-08-09T04:12:10.161Z,99.90
2018-08-09T04:14:38.821Z,99.90
2018-08-09T04:17:18.711Z,99.90
2018-08-09T04:19:47.642Z,99.90
2018-08-09T04:22:23.186Z,99.90
2018-08-09T04:25:03.440Z,99.90
2018-08-09T04:27:35.044Z,99.90
2018-08-09T04:30:04.502Z,99.90
2018-08-09T04:32:35.705Z,99.90
2018-08-09T04:35:04.484Z,99.90
2018-08-09T04:37:33.287Z,99.90
2018-08-09T04:40:21.120Z,99.90
2018-08-09T04:43:01.416Z,99.90
2018-08-09T04:45:32.912Z,99.90
2018-08-09T04:48:07.137Z,99.90
2018-08-09T04:50:36.369Z,99.90
2018-08-09T04:53:05.974Z,99.90
2018-08-09T04:55:37.735Z,99.90
2018-08-09T04:58:06.914Z,99.90
2018-08-09T05:00:41.574Z,99.90
2018-08-09T05:03:10.794Z,99.90
2018-08-09T05:05:39.292Z,99.90
2018-08-09T05:08:09.378Z,99.90
2018-08-09T05:10:45.049Z,99.90
2018-08-09T05:13:17.784Z,99.90
2018-08-09T05:15:46.936Z,99.90
2018-08-09T05:18:16.583Z,99.90
2018-08-09T05:20:45.166Z,99.90
2018-08-09T05:23:13.934Z,99.90
2018-08-09T05:25:45.471Z,99.90
2018-08-09T05:28:17.237Z,99.90
2018-08-09T05:30:51.361Z,99.90
2018-08-09T05:33:20.413Z,99.90
2018-08-09T05:35:52.250Z,99.90
2018-08-09T05:38:26.380Z,99.90
2018-08-09T05:41:00.984Z,99.90
2018-08-09T05:43:35.535Z,99.90
2018-08-09T05:46:15.581Z,99.90
2018-08-09T05:48:50.668Z,99.90
2018-08-09T05:51:19.813Z,99.90
2018-08-09T05:53:53.853Z,99.90
2018-08-09T05:56:25.294Z,99.90
2018-08-09T06:00:26.067Z,99.90
2018-08-09T06:02:55.323Z,99.90
2018-08-09T06:05:24.113Z,99.90
2018-08-09T06:07:53.534Z,99.90
2018-08-09T06:10:22.224Z,99.90
2018-08-09T06:15:36.343Z,99.90
2018-08-09T06:18:05.093Z,99.90
2018-08-09T06:20:34.764Z,99.90
2018-08-09T06:23:03.605Z,99.90
2018-08-09T06:25:32.189Z,99.90
2018-08-09T06:30:57.305Z,99.90
2018-08-09T06:33:26.240Z,99.90
2018-08-09T06:35:54.910Z,99.90
2018-08-09T06:38:23.508Z,99.50
2018-08-09T06:40:51.982Z,99.00
2018-08-09T06:43:21.831Z,98.60
2018-08-09T06:45:50.405Z,98.10
2018-08-09T06:48:18.896Z,98.10
2018-08-09T06:50:47.556Z,97.60
2018-08-09T06:53:19.301Z,97.70
2018-08-09T06:55:47.884Z,97.60
2018-08-09T06:58:21.861Z,97.30
2018-08-09T07:00:51.058Z,97.30
2018-08-09T07:03:26.124Z,97.40
2018-08-09T07:05:55.182Z,97.30
2018-08-09T07:08:36.142Z,97.20
2018-08-09T07:11:09.942Z,97.40
2018-08-09T07:13:38.883Z,97.10
2018-08-09T07:16:13.561Z,97.30
2018-08-09T07:18:42.172Z,97.20
2018-08-09T07:21:13.844Z,97.10
2018-08-09T07:23:42.459Z,96.80
2018-08-09T07:26:12.497Z,96.50
2018-08-09T07:28:41.734Z,96.50
2018-08-09T07:31:10.659Z,96.10
2018-08-09T07:33:39.431Z,96.00
2018-08-09T07:36:08.075Z,95.60
2018-08-09T07:38:36.661Z,95.70
2018-08-09T07:41:05.287Z,94.90
2018-08-09T07:43:33.882Z,94.80
2018-08-09T07:46:03.481Z,94.60
2018-08-09T07:48:32.235Z,94.60
2018-08-09T07:51:00.893Z,94.40
2018-08-09T07:53:29.547Z,93.90
2018-08-09T07:55:58.185Z,93.90
2018-08-09T07:58:27.223Z,93.30
2018-08-09T08:00:56.518Z,93.20
2018-08-09T08:03:25.171Z,93.30
2018-08-09T08:05:53.951Z,92.60
2018-08-09T08:08:28.077Z,92.80
2018-08-09T08:10:57.125Z,92.60
2018-08-09T08:13:26.871Z,91.70
2018-08-09T08:15:55.405Z,91.50
2018-08-09T08:18:25.155Z,91.70
2018-08-09T08:20:53.703Z,91.10
2018-08-09T08:23:22.427Z,90.50
2018-08-09T08:25:52.264Z,90.60
2018-08-09T08:28:20.971Z,89.80
2018-08-09T08:30:49.466Z,89.70
2018-08-09T08:33:18.172Z,89.70
2018-08-09T08:35:47.378Z,89.20
2018-08-09T08:38:16.613Z,88.20
2018-08-09T08:40:45.355Z,87.70
2018-08-09T08:43:13.919Z,85.30
2018-08-09T08:45:42.627Z,84.00
2018-08-09T08:48:11.282Z,83.40
2018-08-09T08:50:40.394Z,83.50
2018-08-09T08:53:09.695Z,82.40
2018-08-09T08:55:38.371Z,82.10
2018-08-09T08:58:06.968Z,81.70
2018-08-09T09:00:36.348Z,78.80
2018-08-09T09:03:05.414Z,78.50
2018-08-09T09:05:33.654Z,78.60
2018-08-09T09:08:03.252Z,78.40
2018-08-09T09:10:31.821Z,74.60
2018-08-09T09:13:01.286Z,73.00
2018-08-09T09:15:30.199Z,72.30
2018-08-09T09:17:58.822Z,69.60
2018-08-09T09:20:27.451Z,71.00
2018-08-09T09:22:56.738Z,69.60
2018-08-09T09:25:26.785Z,68.50
2018-08-09T09:27:58.494Z,66.70
2018-08-09T09:30:30.140Z,67.90
2018-08-09T09:32:59.281Z,66.70
2018-08-09T09:35:27.771Z,67.10
2018-08-09T09:37:56.440Z,66.40
2018-08-09T09:40:25.029Z,66.60
2018-08-09T09:42:53.777Z,65.40
2018-08-09T09:45:25.320Z,65.80
2018-08-09T09:47:53.929Z,64.70
2018-08-09T09:50:23.613Z,63.70
2018-08-09T09:52:52.296Z,63.50
2018-08-09T09:55:20.943Z,64.20
2018-08-09T09:57:49.509Z,64.00
2018-08-09T10:00:23.577Z,65.00
2018-08-09T10:02:53.089Z,62.30
2018-08-09T10:05:21.909Z,61.30
2018-08-09T10:07:51.318Z,60.40
2018-08-09T10:10:21.114Z,58.90
2018-08-09T10:12:50.767Z,58.50
2018-08-09T10:15:20.466Z,58.80
2018-08-09T10:17:49.150Z,58.30
2018-08-09T10:20:21.355Z,57.70
2018-08-09T10:22:49.793Z,58.20
2018-08-09T10:25:19.139Z,58.10
2018-08-09T10:27:48.338Z,57.70
2018-08-09T10:30:18.874Z,57.50
2018-08-09T10:32:47.907Z,57.90
2018-08-09T10:35:18.642Z,58.20
2018-08-09T10:37:48.322Z,58.20
2018-08-09T10:40:20.034Z,57.90
2018-08-09T10:42:49.758Z,58.60
2018-08-09T10:45:20.673Z,58.70
2018-08-09T10:47:49.957Z,58.60
2018-08-09T10:50:21.895Z,59.10
2018-08-09T10:52:50.536Z,59.80
2018-08-09T10:55:20.146Z,59.90
2018-08-09T10:57:54.352Z,61.20
2018-08-09T11:00:25.747Z,62.50
2018-08-09T11:02:57.582Z,62.70
2018-08-09T11:05:31.831Z,63.20
2018-08-09T11:08:08.425Z,62.60
2018-08-09T11:10:38.527Z,62.20
2018-08-09T11:13:07.235Z,61.20
2018-08-09T11:15:40.956Z,61.70
2018-08-09T11:18:10.112Z,62.00
2018-08-09T11:20:40.728Z,62.20
2018-08-09T11:23:09.860Z,62.50
2018-08-09T11:25:38.698Z,63.00
2018-08-09T11:28:10.351Z,63.50
2018-08-09T11:30:39.241Z,63.50
2018-08-09T11:33:08.778Z,63.90
2018-08-09T11:35:40.529Z,63.60
2018-08-09T11:38:10.593Z,64.20
2018-08-09T11:40:42.994Z,63.80
2018-08-09T11:43:11.581Z,63.80
2018-08-09T11:45:43.192Z,64.70
2018-08-09T11:48:12.759Z,63.90
2018-08-09T11:52:08.946Z,64.70
2018-08-09T11:54:37.362Z,65.20
2018-08-09T11:57:06.103Z,66.50
2018-08-09T11:59:35.754Z,66.60
2018-08-09T12:02:07.406Z,67.20
2018-08-09T12:04:36.235Z,67.40
2018-08-09T12:07:10.662Z,68.20
2018-08-09T12:09:43.604Z,68.20
2018-08-09T12:12:15.837Z,68.00
2018-08-09T12:14:47.369Z,69.20
2018-08-09T12:17:19.107Z,68.70
2018-08-09T12:19:47.890Z,69.00
2018-08-09T12:22:28.498Z,68.80
2018-08-09T12:25:09.923Z,67.60
2018-08-09T12:27:44.326Z,67.80
2018-08-09T12:30:18.834Z,68.20
2018-08-09T12:32:48.043Z,68.70
2018-08-09T12:35:20.239Z,69.00
2018-08-09T12:37:51.565Z,69.30
2018-08-09T12:40:30.081Z,69.50
2018-08-09T12:43:01.916Z,70.00
2018-08-09T12:45:30.775Z,71.20
2018-08-09T12:48:04.976Z,72.60
2018-08-09T12:50:34.418Z,73.40
2018-08-09T12:53:06.054Z,74.30
2018-08-09T12:55:34.820Z,74.60
2018-08-09T12:58:07.696Z,74.90
2018-08-09T13:00:36.453Z,75.20
2018-08-09T13:03:04.934Z,75.20
2018-08-09T13:05:33.598Z,75.70
2018-08-09T13:08:03.325Z,76.70
2018-08-09T13:10:33.759Z,77.20
2018-08-09T13:13:02.628Z,77.20
2018-08-09T13:15:31.315Z,77.60
2018-08-09T13:18:03.036Z,77.80
2018-08-09T13:20:34.027Z,78.20
2018-08-09T13:23:02.822Z,78.20
2018-08-09T13:25:32.228Z,79.00
2018-08-09T13:28:01.265Z,79.50
2018-08-09T13:30:35.367Z,79.70
2018-08-09T13:33:03.650Z,80.00
2018-08-09T13:35:33.516Z,80.50
2018-08-09T13:38:02.091Z,80.50
2018-08-09T13:40:31.858Z,80.90
2018-08-09T13:43:00.662Z,80.90
2018-08-09T13:45:39.025Z,81.10
2018-08-09T13:51:02.839Z,81.40
2018-08-09T13:53:34.609Z,81.80
2018-08-09T13:56:04.316Z,82.10
2018-08-09T13:58:38.421Z,83.30
2018-08-09T14:01:07.726Z,84.10
2018-08-09T14:03:37.710Z,85.10
2018-08-09T14:06:07.480Z,86.00
2018-08-09T14:08:36.766Z,85.80
2018-08-09T14:11:08.620Z,86.60
2018-08-09T14:13:40.322Z,87.60
2018-08-09T14:16:10.439Z,88.70
2018-08-09T14:18:38.966Z,89.50
2018-08-09T14:21:07.469Z,90.70
2018-08-09T14:23:36.199Z,90.60
2018-08-09T14:26:04.804Z,91.30
2018-08-09T14:28:33.587Z,91.40
2018-08-09T14:31:03.211Z,91.80
2018-08-09T14:33:32.928Z,92.10
2018-08-09T14:36:04.601Z,92.60
2018-08-09T14:38:38.756Z,92.90
2018-08-09T14:41:07.969Z,93.20
2018-08-09T14:43:39.733Z,93.40
2018-08-09T14:49:06.283Z,94.20
2018-08-09T14:51:43.017Z,94.90
2018-08-09T14:54:18.648Z,95.30
2018-08-09T14:56:47.018Z,95.60
2018-08-09T14:59:15.468Z,96.00
2018-08-09T15:01:44.044Z,96.10
2018-08-09T15:04:18.188Z,96.40
2018-08-09T15:06:47.384Z,96.50
2018-08-09T15:09:15.995Z,96.60
2018-08-09T15:11:59.423Z,96.80
2018-08-09T15:14:37.621Z,96.90
2018-08-09T15:17:06.862Z,97.10
2018-08-09T15:19:38.596Z,97.10
2018-08-09T15:22:09.455Z,97.40
2018-08-09T15:24:38.040Z,97.60
2018-08-09T15:27:07.049Z,97.70
2018-08-09T15:29:35.387Z,97.80
2018-08-09T15:32:03.930Z,98.00
2018-08-09T15:34:38.202Z,98.30
2018-08-09T15:37:07.249Z,98.70
2018-08-09T15:39:41.268Z,98.80
2018-08-09T15:42:15.910Z,99.10
2018-08-09T15:44:48.070Z,99.20
2018-08-09T15:47:19.700Z,99.40
2018-08-09T15:49:51.277Z,99.50
2018-08-09T15:52:25.527Z,99.60
2018-08-09T15:54:54.380Z,99.60
2018-08-09T15:57:23.161Z,99.80
2018-08-09T15:59:52.014Z,99.50
2018-08-09T16:02:27.166Z,99.60
2018-08-09T16:05:05.971Z,99.70
2018-08-09T16:07:36.051Z,99.90
2018-08-09T16:10:10.308Z,99.90
2018-08-09T16:12:45.077Z,99.90
2018-08-09T16:15:15.745Z,99.90
2018-08-09T16:17:47.054Z,99.90
2018-08-09T16:20:15.692Z,99.90
2018-08-09T16:22:45.530Z,99.90
2018-08-09T16:25:16.206Z,99.90
2018-08-09T16:27:44.939Z,99.90
2018-08-09T16:30:15.999Z,99.90
2018-08-09T16:32:44.506Z,99.90
2018-08-09T16:35:13.595Z,99.90
2018-08-09T16:37:43.428Z,99.90
2018-08-09T16:40:16.222Z,99.90
2018-08-09T16:42:46.297Z,99.90
2018-08-09T16:45:16.329Z,99.90
2018-08-09T16:47:45.181Z,99.90
2018-08-09T16:50:16.889Z,99.90
2018-08-09T16:52:47.597Z,99.90
2018-08-09T16:55:17.962Z,99.90
2018-08-09T16:57:48.140Z,99.90
2018-08-09T17:00:18.423Z,99.90
2018-08-09T17:02:47.773Z,99.90
2018-08-09T17:05:19.798Z,99.90
2018-08-09T17:07:50.040Z,99.90
2018-08-09T17:10:20.115Z,99.90
2018-08-09T17:12:49.757Z,99.90
2018-08-09T17:15:27.940Z,99.90
2018-08-09T17:17:57.679Z,99.90
2018-08-09T17:20:28.748Z,99.90
2018-08-09T17:23:01.689Z,99.90
2018-08-09T17:25:30.378Z,99.90
2018-08-09T17:27:59.952Z,99.90
2018-08-09T17:30:29.127Z,99.90
2018-08-09T17:32:58.430Z,99.90
2018-08-09T17:35:28.293Z,99.90
2018-08-09T17:37:57.302Z,99.90
2018-08-09T17:40:28.761Z,99.90
2018-08-09T17:42:58.559Z,99.90
2018-08-09T17:45:29.848Z,99.90
2018-08-09T17:47:58.431Z,99.90
2018-08-09T17:50:29.925Z,99.90
2018-08-09T17:53:05.701Z,99.90
2018-08-09T17:55:39.719Z,99.90
2018-08-09T17:58:08.888Z,99.90
2018-08-09T18:00:38.882Z,99.90
2018-08-09T18:03:08.453Z,99.90
2018-08-09T18:05:38.005Z,99.90
2018-08-09T18:08:07.593Z,99.90
2018-08-09T18:10:37.676Z,99.90
2018-08-09T18:13:06.126Z,99.90
2018-08-09T18:15:35.966Z,99.90
2018-08-09T18:18:04.386Z,99.90
2018-08-09T18:20:34.870Z,99.90
2018-08-09T18:23:04.105Z,99.90
2018-08-09T18:25:32.641Z,99.90
2018-08-09T18:28:01.240Z,99.90
2018-08-09T18:30:32.993Z,99.90
2018-08-09T18:33:04.722Z,99.90
2018-08-09T18:35:33.175Z,99.90
2018-08-09T18:38:01.892Z,99.90
2018-08-09T18:40:30.718Z,99.90
2018-08-09T18:42:59.890Z,99.90
2018-08-09T18:45:28.957Z,99.90
2018-08-09T18:47:57.492Z,99.90
2018-08-09T18:50:28.604Z,99.90
2018-08-09T18:52:59.198Z,99.90
2018-08-09T18:55:27.684Z,99.90
2018-08-09T18:57:56.572Z,99.90
2018-08-09T19:00:27.345Z,99.90
2018-08-09T19:02:56.080Z,99.90
2018-08-09T19:05:25.391Z,99.90
2018-08-09T19:07:54.826Z,99.90
2018-08-09T19:10:26.814Z,99.90
2018-08-09T19:12:56.979Z,99.90
2018-08-09T19:15:26.035Z,99.90
2018-08-09T19:17:55.130Z,99.90
2018-08-09T19:20:30.852Z,99.90
2018-08-09T19:22:59.509Z,99.90
2018-08-09T19:26:52.741Z,99.90
2018-08-09T19:29:21.788Z,99.90
2018-08-09T19:31:51.793Z,99.90
2018-08-09T19:34:23.049Z,99.90
2018-08-09T19:36:59.259Z,99.90
2018-08-09T19:39:28.667Z,99.90
2018-08-09T19:41:58.414Z,99.90
2018-08-09T19:44:27.062Z,99.90
2018-08-09T19:46:56.062Z,99.90
2018-08-09T19:49:25.812Z,99.90
2018-08-09T19:51:55.132Z,99.90
2018-08-09T19:54:30.497Z,99.90
2018-08-09T19:56:59.494Z,99.90
2018-08-09T19:59:29.176Z,99.90
2018-08-09T20:01:58.046Z,99.90
2018-08-09T20:04:26.795Z,99.90
2018-08-09T20:06:55.665Z,99.90
2018-08-09T20:09:25.524Z,99.90
2018-08-09T20:11:55.424Z,99.90
2018-08-09T20:14:23.805Z,99.90
2018-08-09T20:16:52.491Z,99.90
2018-08-09T20:19:21.084Z,99.90
2018-08-09T20:21:50.523Z,99.90
2018-08-09T20:24:19.546Z,99.90
2018-08-09T20:26:48.488Z,99.90
2018-08-09T20:29:18.156Z,99.90
2018-08-09T20:31:49.935Z,99.90
2018-08-09T20:34:18.670Z,99.90
2018-08-09T20:36:47.529Z,99.90
2018-08-09T20:39:16.007Z,99.90
2018-08-09T20:41:45.579Z,99.90
2018-08-09T20:44:15.775Z,99.90
2018-08-09T20:46:45.117Z,99.90
2018-08-09T20:49:13.809Z,99.90
2018-08-09T20:51:42.705Z,99.90
2018-08-09T20:54:11.332Z,99.90
2018-08-09T20:56:41.145Z,99.90
2018-08-09T20:59:09.810Z,99.90
2018-08-09T21:01:38.560Z,99.90
2018-08-09T21:04:08.773Z,99.90
2018-08-09T21:06:38.858Z,99.90
2018-08-09T21:09:10.572Z,99.90
2018-08-09T21:11:39.448Z,99.90
2018-08-09T21:14:08.063Z,99.90
2018-08-09T21:16:36.822Z,99.90
2018-08-09T21:19:05.548Z,99.90
2018-08-09T21:21:35.116Z,99.90
2018-08-09T21:24:03.804Z,99.90
2018-08-09T21:26:34.108Z,99.90
2018-08-09T21:29:03.097Z,99.90
2018-08-09T21:31:32.808Z,99.90
2018-08-09T21:34:02.421Z,99.90
2018-08-09T21:36:32.201Z,99.90
2018-08-09T21:39:02.154Z,99.90
2018-08-09T21:41:30.938Z,99.90
2018-08-09T21:43:59.588Z,99.90
2018-08-09T21:46:28.597Z,99.90
2018-08-09T21:48:56.984Z,99.90
2018-08-09T21:51:25.505Z,99.90
2018-08-09T21:53:54.190Z,99.90
2018-08-09T21:56:28.604Z,99.90
2018-08-09T21:58:57.593Z,99.90
2018-08-09T22:01:26.253Z,99.90
2018-08-09T22:03:55.881Z,99.90
2018-08-09T22:06:31.329Z,99.90
2018-08-09T22:09:14.152Z,99.90
2018-08-09T22:11:48.258Z,99.90
2018-08-09T22:14:22.808Z,99.90
2018-08-09T22:17:13.086Z,99.90
2018-08-09T22:19:49.979Z,99.90
2018-08-09T22:22:31.201Z,99.90
2018-08-09T22:25:06.553Z,99.90
2018-08-09T22:27:35.728Z,99.90
2018-08-09T22:30:06.266Z,99.90
2018-08-09T22:32:36.013Z,99.90
2018-08-09T22:35:05.449Z,99.90
2018-08-09T22:37:33.809Z,99.90
2018-08-09T22:40:08.081Z,99.90
2018-08-09T22:42:37.105Z,99.90
2018-08-09T22:45:18.951Z,99.90
2018-08-09T22:47:53.437Z,99.90
2018-08-09T22:50:25.083Z,99.90
2018-08-09T22:53:01.432Z,99.90
2018-08-09T22:55:31.165Z,99.90
2018-08-09T22:58:00.273Z,99.90
2018-08-09T23:00:29.252Z,99.90
2018-08-09T23:02:57.702Z,99.90
2018-08-09T23:05:27.442Z,99.90
2018-08-09T23:07:57.648Z,99.90
2018-08-09T23:10:26.754Z,99.90
2018-08-09T23:12:55.729Z,99.90
2018-08-09T23:15:27.918Z,99.90
2018-08-09T23:17:57.220Z,99.90
2018-08-09T23:20:31.241Z,99.90
2018-08-09T23:23:02.597Z,99.90
2018-08-09T23:25:32.166Z,99.90
2018-08-09T23:28:07.831Z,99.90
2018-08-09T23:30:37.527Z,99.90
2018-08-09T23:33:09.385Z,99.90
2018-08-09T23:35:38.188Z,99.90
2018-08-09T23:38:12.255Z,99.90
2018-08-09T23:40:41.400Z,99.90
2018-08-09T23:43:10.910Z,99.90
2018-08-09T23:45:41.745Z,99.90
2018-08-09T23:48:12.572Z,99.90
2018-08-09T23:50:40.955Z,99.90
2018-08-09T23:53:10.717Z,99.90
2018-08-09T23:55:40.272Z,99.90
2018-08-09T23:58:09.078Z,99.90
